sensor_id;sensor_type;location;lat;lon;timestamp;P1;durP1;ratioP1;P2;durP2;ratioP2
17228;SDS011;8731;50.364;8.958;2024-03-02T00:00:37;6.03;;;4.90;;
17228;SDS011;8731;50.364;8.958;2024-03-02T00:04:59;5.77;;;5.10;;
17228;SDS011;8731;50.364;8.958;2024-03-02T00:09:22;8.50;;;6.47;;
17228;SDS011;8731;50.364;8.958;2024-03-02T00:13:45;9.27;;;6.33;;
17228;SDS011;8731;50.364;8.958;2024-03-02T00:18:09;7.13;;;5.40;;
17228;SDS011;8731;50.364;8.958;2024-03-02T00:22:34;8.53;;;5.27;;
17228;SDS011;8731;50.364;8.958;2024-03-02T00:26:58;5.50;;;4.93;;
17228;SDS011;8731;50.364;8.958;2024-03-02T00:31:20;5.43;;;4.27;;
17228;SDS011;8731;50.364;8.958;2024-03-02T00:35:45;8.57;;;5.53;;
17228;SDS011;8731;50.364;8.958;2024-03-02T00:40:08;6.53;;;5.57;;
17228;SDS011;8731;50.364;8.958;2024-03-02T00:44:33;6.20;;;4.93;;
17228;SDS011;8731;50.364;8.958;2024-03-02T00:48:57;6.00;;;5.40;;
17228;SDS011;8731;50.364;8.958;2024-03-02T00:53:23;9.17;;;6.93;;
17228;SDS011;8731;50.364;8.958;2024-03-02T00:57:47;8.23;;;6.10;;
17228;SDS011;8731;50.364;8.958;2024-03-02T01:02:10;7.53;;;6.60;;
17228;SDS011;8731;50.364;8.958;2024-03-02T01:06:32;7.07;;;6.33;;
17228;SDS011;8731;50.364;8.958;2024-03-02T01:10:55;8.83;;;6.67;;
17228;SDS011;8731;50.364;8.958;2024-03-02T01:15:18;10.07;;;7.60;;
17228;SDS011;8731;50.364;8.958;2024-03-02T01:19:41;9.40;;;7.57;;
17228;SDS011;8731;50.364;8.958;2024-03-02T01:24:03;10.00;;;8.10;;
17228;SDS011;8731;50.364;8.958;2024-03-02T01:28:27;9.80;;;8.27;;
17228;SDS011;8731;50.364;8.958;2024-03-02T01:32:50;10.07;;;8.33;;
17228;SDS011;8731;50.364;8.958;2024-03-02T01:37:12;11.87;;;8.67;;
17228;SDS011;8731;50.364;8.958;2024-03-02T01:41:34;10.53;;;9.00;;
17228;SDS011;8731;50.364;8.958;2024-03-02T01:45:58;12.10;;;9.33;;
17228;SDS011;8731;50.364;8.958;2024-03-02T01:50:24;13.20;;;10.63;;
17228;SDS011;8731;50.364;8.958;2024-03-02T01:54:48;14.07;;;10.63;;
17228;SDS011;8731;50.364;8.958;2024-03-02T01:59:11;12.07;;;9.60;;
17228;SDS011;8731;50.364;8.958;2024-03-02T02:03:35;16.43;;;12.10;;
17228;SDS011;8731;50.364;8.958;2024-03-02T02:07:58;17.23;;;11.87;;
17228;SDS011;8731;50.364;8.958;2024-03-02T02:12:21;16.57;;;12.63;;
17228;SDS011;8731;50.364;8.958;2024-03-02T02:16:44;14.00;;;11.53;;
17228;SDS011;8731;50.364;8.958;2024-03-02T02:21:07;15.07;;;12.83;;
17228;SDS011;8731;50.364;8.958;2024-03-02T02:25:31;17.53;;;13.17;;
17228;SDS011;8731;50.364;8.958;2024-03-02T02:29:54;19.03;;;13.67;;
17228;SDS011;8731;50.364;8.958;2024-03-02T02:34:16;18.10;;;14.00;;
17228;SDS011;8731;50.364;8.958;2024-03-02T02:38:40;17.80;;;14.20;;
17228;SDS011;8731;50.364;8.958;2024-03-02T02:43:08;20.13;;;15.20;;
17228;SDS011;8731;50.364;8.958;2024-03-02T02:47:31;23.43;;;16.83;;
17228;SDS011;8731;50.364;8.958;2024-03-02T02:51:55;24.50;;;16.87;;
17228;SDS011;8731;50.364;8.958;2024-03-02T02:56:17;26.57;;;17.27;;
17228;SDS011;8731;50.364;8.958;2024-03-02T03:00:41;24.07;;;17.83;;
17228;SDS011;8731;50.364;8.958;2024-03-02T03:05:03;25.73;;;18.63;;
17228;SDS011;8731;50.364;8.958;2024-03-02T03:09:27;26.00;;;17.40;;
17228;SDS011;8731;50.364;8.958;2024-03-02T03:13:49;26.53;;;18.37;;
17228;SDS011;8731;50.364;8.958;2024-03-02T03:18:13;25.43;;;18.00;;
17228;SDS011;8731;50.364;8.958;2024-03-02T03:22:35;31.47;;;19.13;;
17228;SDS011;8731;50.364;8.958;2024-03-02T03:26:57;26.73;;;19.17;;
17228;SDS011;8731;50.364;8.958;2024-03-02T03:31:20;26.77;;;18.20;;
17228;SDS011;8731;50.364;8.958;2024-03-02T03:35:43;24.40;;;17.83;;
17228;SDS011;8731;50.364;8.958;2024-03-02T03:40:06;22.87;;;16.70;;
17228;SDS011;8731;50.364;8.958;2024-03-02T03:44:31;23.20;;;17.37;;
17228;SDS011;8731;50.364;8.958;2024-03-02T03:48:53;25.23;;;17.10;;
17228;SDS011;8731;50.364;8.958;2024-03-02T03:53:18;26.07;;;17.77;;
17228;SDS011;8731;50.364;8.958;2024-03-02T03:57:40;21.67;;;16.97;;
17228;SDS011;8731;50.364;8.958;2024-03-02T04:02:02;22.93;;;17.53;;
17228;SDS011;8731;50.364;8.958;2024-03-02T04:06:25;26.33;;;18.57;;
17228;SDS011;8731;50.364;8.958;2024-03-02T04:10:49;25.30;;;18.07;;
17228;SDS011;8731;50.364;8.958;2024-03-02T04:15:11;24.77;;;17.93;;
17228;SDS011;8731;50.364;8.958;2024-03-02T04:19:33;25.47;;;18.27;;
17228;SDS011;8731;50.364;8.958;2024-03-02T04:23:55;27.23;;;17.50;;
17228;SDS011;8731;50.364;8.958;2024-03-02T04:28:20;24.40;;;16.83;;
17228;SDS011;8731;50.364;8.958;2024-03-02T04:32:42;25.33;;;17.60;;
17228;SDS011;8731;50.364;8.958;2024-03-02T04:37:06;27.13;;;18.53;;
17228;SDS011;8731;50.364;8.958;2024-03-02T04:41:29;24.90;;;17.10;;
17228;SDS011;8731;50.364;8.958;2024-03-02T04:45:52;25.57;;;17.97;;
17228;SDS011;8731;50.364;8.958;2024-03-02T04:50:15;24.90;;;17.20;;
17228;SDS011;8731;50.364;8.958;2024-03-02T04:54:37;21.83;;;16.17;;
17228;SDS011;8731;50.364;8.958;2024-03-02T04:59:13;23.70;;;16.77;;
17228;SDS011;8731;50.364;8.958;2024-03-02T05:03:37;21.87;;;15.70;;
17228;SDS011;8731;50.364;8.958;2024-03-02T05:07:59;22.83;;;16.67;;
17228;SDS011;8731;50.364;8.958;2024-03-02T05:12:22;22.60;;;15.20;;
17228;SDS011;8731;50.364;8.958;2024-03-02T05:17:07;24.03;;;15.80;;
17228;SDS011;8731;50.364;8.958;2024-03-02T05:21:31;22.20;;;16.70;;
17228;SDS011;8731;50.364;8.958;2024-03-02T05:25:53;21.90;;;16.13;;
17228;SDS011;8731;50.364;8.958;2024-03-02T05:30:15;28.20;;;17.23;;
17228;SDS011;8731;50.364;8.958;2024-03-02T05:34:38;22.00;;;16.37;;
17228;SDS011;8731;50.364;8.958;2024-03-02T05:39:01;23.80;;;16.43;;
17228;SDS011;8731;50.364;8.958;2024-03-02T05:43:25;24.77;;;15.43;;
17228;SDS011;8731;50.364;8.958;2024-03-02T05:47:47;24.57;;;15.60;;
17228;SDS011;8731;50.364;8.958;2024-03-02T05:52:09;23.47;;;16.63;;
17228;SDS011;8731;50.364;8.958;2024-03-02T05:56:34;23.40;;;15.17;;
17228;SDS011;8731;50.364;8.958;2024-03-02T06:00:57;22.13;;;16.03;;
17228;SDS011;8731;50.364;8.958;2024-03-02T06:05:19;23.47;;;16.40;;
17228;SDS011;8731;50.364;8.958;2024-03-02T06:09:41;26.50;;;17.63;;
17228;SDS011;8731;50.364;8.958;2024-03-02T06:14:06;24.37;;;16.10;;
17228;SDS011;8731;50.364;8.958;2024-03-02T06:18:29;23.37;;;16.00;;
17228;SDS011;8731;50.364;8.958;2024-03-02T06:22:53;25.77;;;17.03;;
17228;SDS011;8731;50.364;8.958;2024-03-02T06:27:16;22.83;;;16.10;;
17228;SDS011;8731;50.364;8.958;2024-03-02T06:31:39;21.90;;;16.13;;
17228;SDS011;8731;50.364;8.958;2024-03-02T06:36:02;22.40;;;15.30;;
17228;SDS011;8731;50.364;8.958;2024-03-02T06:40:28;23.53;;;15.63;;
17228;SDS011;8731;50.364;8.958;2024-03-02T06:44:50;19.47;;;14.47;;
17228;SDS011;8731;50.364;8.958;2024-03-02T06:49:15;22.63;;;15.80;;
17228;SDS011;8731;50.364;8.958;2024-03-02T06:53:38;23.17;;;16.43;;
17228;SDS011;8731;50.364;8.958;2024-03-02T06:58:00;21.27;;;16.23;;
17228;SDS011;8731;50.364;8.958;2024-03-02T07:02:22;20.83;;;15.80;;
17228;SDS011;8731;50.364;8.958;2024-03-02T07:06:48;26.30;;;17.13;;
17228;SDS011;8731;50.364;8.958;2024-03-02T07:11:11;20.40;;;15.23;;
17228;SDS011;8731;50.364;8.958;2024-03-02T07:15:33;22.93;;;15.47;;
17228;SDS011;8731;50.364;8.958;2024-03-02T07:20:14;20.63;;;15.07;;
17228;SDS011;8731;50.364;8.958;2024-03-02T07:24:42;19.70;;;15.03;;
17228;SDS011;8731;50.364;8.958;2024-03-02T07:29:05;19.50;;;15.20;;
17228;SDS011;8731;50.364;8.958;2024-03-02T07:33:28;20.57;;;14.77;;
17228;SDS011;8731;50.364;8.958;2024-03-02T07:37:50;20.30;;;14.47;;
17228;SDS011;8731;50.364;8.958;2024-03-02T07:42:14;19.03;;;13.97;;
17228;SDS011;8731;50.364;8.958;2024-03-02T07:46:37;19.30;;;14.53;;
17228;SDS011;8731;50.364;8.958;2024-03-02T07:50:59;19.17;;;14.50;;
17228;SDS011;8731;50.364;8.958;2024-03-02T07:55:22;16.53;;;13.53;;
17228;SDS011;8731;50.364;8.958;2024-03-02T07:59:46;16.20;;;13.43;;
17228;SDS011;8731;50.364;8.958;2024-03-02T08:04:09;16.97;;;13.40;;
17228;SDS011;8731;50.364;8.958;2024-03-02T08:08:32;17.20;;;13.37;;
17228;SDS011;8731;50.364;8.958;2024-03-02T08:12:54;15.97;;;13.53;;
17228;SDS011;8731;50.364;8.958;2024-03-02T08:17:18;16.60;;;13.40;;
17228;SDS011;8731;50.364;8.958;2024-03-02T08:21:41;16.50;;;13.03;;
17228;SDS011;8731;50.364;8.958;2024-03-02T08:26:04;14.97;;;13.33;;
17228;SDS011;8731;50.364;8.958;2024-03-02T08:30:27;16.10;;;13.40;;
17228;SDS011;8731;50.364;8.958;2024-03-02T08:34:51;15.50;;;13.90;;
17228;SDS011;8731;50.364;8.958;2024-03-02T08:39:14;17.87;;;14.60;;
17228;SDS011;8731;50.364;8.958;2024-03-02T08:43:36;16.57;;;13.57;;
17228;SDS011;8731;50.364;8.958;2024-03-02T08:48:00;15.67;;;14.03;;
17228;SDS011;8731;50.364;8.958;2024-03-02T08:52:23;14.50;;;13.03;;
17228;SDS011;8731;50.364;8.958;2024-03-02T08:56:46;15.43;;;12.80;;
17228;SDS011;8731;50.364;8.958;2024-03-02T09:01:09;12.90;;;11.60;;
17228;SDS011;8731;50.364;8.958;2024-03-02T09:05:32;11.53;;;10.33;;
17228;SDS011;8731;50.364;8.958;2024-03-02T09:09:56;12.70;;;11.40;;
17228;SDS011;8731;50.364;8.958;2024-03-02T09:14:18;11.67;;;10.30;;
17228;SDS011;8731;50.364;8.958;2024-03-02T09:18:41;11.10;;;10.00;;
17228;SDS011;8731;50.364;8.958;2024-03-02T09:23:03;10.43;;;9.27;;
17228;SDS011;8731;50.364;8.958;2024-03-02T09:27:27;10.03;;;8.70;;
17228;SDS011;8731;50.364;8.958;2024-03-02T09:31:49;9.37;;;8.47;;
17228;SDS011;8731;50.364;8.958;2024-03-02T09:36:18;9.40;;;8.50;;
17228;SDS011;8731;50.364;8.958;2024-03-02T09:40:42;9.13;;;8.30;;
17228;SDS011;8731;50.364;8.958;2024-03-02T09:45:09;9.43;;;8.47;;
17228;SDS011;8731;50.364;8.958;2024-03-02T09:49:32;9.03;;;8.23;;
17228;SDS011;8731;50.364;8.958;2024-03-02T09:53:55;8.63;;;7.83;;
17228;SDS011;8731;50.364;8.958;2024-03-02T09:58:18;9.07;;;8.10;;
17228;SDS011;8731;50.364;8.958;2024-03-02T10:02:42;9.07;;;8.17;;
17228;SDS011;8731;50.364;8.958;2024-03-02T10:07:11;9.33;;;8.53;;
17228;SDS011;8731;50.364;8.958;2024-03-02T10:11:35;8.50;;;7.73;;
17228;SDS011;8731;50.364;8.958;2024-03-02T10:15:59;9.37;;;8.03;;
17228;SDS011;8731;50.364;8.958;2024-03-02T10:20:36;8.63;;;7.70;;
17228;SDS011;8731;50.364;8.958;2024-03-02T10:24:59;8.50;;;7.53;;
17228;SDS011;8731;50.364;8.958;2024-03-02T10:29:21;8.27;;;7.37;;
17228;SDS011;8731;50.364;8.958;2024-03-02T10:33:43;8.63;;;7.73;;
17228;SDS011;8731;50.364;8.958;2024-03-02T10:38:07;8.43;;;7.63;;
17228;SDS011;8731;50.364;8.958;2024-03-02T10:42:33;8.10;;;7.30;;
17228;SDS011;8731;50.364;8.958;2024-03-02T10:46:56;8.60;;;7.57;;
17228;SDS011;8731;50.364;8.958;2024-03-02T10:51:24;9.73;;;7.43;;
17228;SDS011;8731;50.364;8.958;2024-03-02T10:55:50;8.00;;;6.97;;
17228;SDS011;8731;50.364;8.958;2024-03-02T11:00:23;8.03;;;7.23;;
17228;SDS011;8731;50.364;8.958;2024-03-02T11:04:50;11.60;;;6.83;;
17228;SDS011;8731;50.364;8.958;2024-03-02T11:09:18;10.83;;;7.03;;
17228;SDS011;8731;50.364;8.958;2024-03-02T11:13:47;7.87;;;7.10;;
17228;SDS011;8731;50.364;8.958;2024-03-02T11:18:12;7.17;;;6.47;;
17228;SDS011;8731;50.364;8.958;2024-03-02T11:22:37;7.37;;;6.67;;
17228;SDS011;8731;50.364;8.958;2024-03-02T11:27:00;7.27;;;5.90;;
17228;SDS011;8731;50.364;8.958;2024-03-02T11:31:30;6.37;;;5.60;;
17228;SDS011;8731;50.364;8.958;2024-03-02T11:36:22;6.10;;;5.43;;
17228;SDS011;8731;50.364;8.958;2024-03-02T11:40:45;4.60;;;4.20;;
17228;SDS011;8731;50.364;8.958;2024-03-02T11:45:08;5.23;;;4.50;;
17228;SDS011;8731;50.364;8.958;2024-03-02T11:49:39;4.40;;;4.00;;
17228;SDS011;8731;50.364;8.958;2024-03-02T11:54:05;3.60;;;3.20;;
17228;SDS011;8731;50.364;8.958;2024-03-02T11:58:29;4.90;;;3.43;;
17228;SDS011;8731;50.364;8.958;2024-03-02T12:02:59;4.97;;;3.20;;
17228;SDS011;8731;50.364;8.958;2024-03-02T12:07:25;3.93;;;3.07;;
17228;SDS011;8731;50.364;8.958;2024-03-02T12:11:48;5.43;;;3.20;;
17228;SDS011;8731;50.364;8.958;2024-03-02T12:16:25;11.10;;;3.53;;
17228;SDS011;8731;50.364;8.958;2024-03-02T12:20:48;3.80;;;3.43;;
17228;SDS011;8731;50.364;8.958;2024-03-02T12:25:14;5.67;;;3.20;;
17228;SDS011;8731;50.364;8.958;2024-03-02T12:29:38;4.27;;;3.10;;
17228;SDS011;8731;50.364;8.958;2024-03-02T12:34:03;3.40;;;3.10;;
17228;SDS011;8731;50.364;8.958;2024-03-02T12:38:26;3.93;;;2.60;;
17228;SDS011;8731;50.364;8.958;2024-03-02T12:42:51;6.77;;;3.20;;
17228;SDS011;8731;50.364;8.958;2024-03-02T12:47:13;5.97;;;3.50;;
17228;SDS011;8731;50.364;8.958;2024-03-02T12:51:37;8.40;;;3.77;;
17228;SDS011;8731;50.364;8.958;2024-03-02T12:56:02;3.37;;;2.87;;
17228;SDS011;8731;50.364;8.958;2024-03-02T13:00:27;4.97;;;3.13;;
17228;SDS011;8731;50.364;8.958;2024-03-02T13:04:53;3.30;;;3.00;;
17228;SDS011;8731;50.364;8.958;2024-03-02T13:09:16;2.97;;;2.70;;
17228;SDS011;8731;50.364;8.958;2024-03-02T13:13:40;4.17;;;2.37;;
17228;SDS011;8731;50.364;8.958;2024-03-02T13:18:06;3.80;;;2.50;;
17228;SDS011;8731;50.364;8.958;2024-03-02T13:22:29;5.83;;;2.30;;
17228;SDS011;8731;50.364;8.958;2024-03-02T13:26:51;5.77;;;2.20;;
17228;SDS011;8731;50.364;8.958;2024-03-02T13:31:15;5.87;;;2.13;;
17228;SDS011;8731;50.364;8.958;2024-03-02T13:35:40;2.57;;;1.83;;
17228;SDS011;8731;50.364;8.958;2024-03-02T13:40:02;5.47;;;2.27;;
17228;SDS011;8731;50.364;8.958;2024-03-02T13:44:26;2.07;;;1.83;;
17228;SDS011;8731;50.364;8.958;2024-03-02T13:48:49;2.50;;;1.97;;
17228;SDS011;8731;50.364;8.958;2024-03-02T13:53:13;3.17;;;1.70;;
17228;SDS011;8731;50.364;8.958;2024-03-02T13:57:35;10.80;;;2.70;;
17228;SDS011;8731;50.364;8.958;2024-03-02T14:01:57;2.50;;;1.40;;
17228;SDS011;8731;50.364;8.958;2024-03-02T14:06:20;3.23;;;2.00;;
17228;SDS011;8731;50.364;8.958;2024-03-02T14:10:44;1.93;;;1.57;;
17228;SDS011;8731;50.364;8.958;2024-03-02T14:15:07;7.57;;;2.10;;
17228;SDS011;8731;50.364;8.958;2024-03-02T14:19:30;5.10;;;2.00;;
17228;SDS011;8731;50.364;8.958;2024-03-02T14:23:52;3.53;;;1.70;;
17228;SDS011;8731;50.364;8.958;2024-03-02T14:28:17;8.13;;;7.33;;
17228;SDS011;8731;50.364;8.958;2024-03-02T14:32:39;5.10;;;2.50;;
17228;SDS011;8731;50.364;8.958;2024-03-02T14:37:02;13.33;;;3.30;;
17228;SDS011;8731;50.364;8.958;2024-03-02T14:41:24;4.67;;;2.30;;
17228;SDS011;8731;50.364;8.958;2024-03-02T14:45:48;2.67;;;2.27;;
17228;SDS011;8731;50.364;8.958;2024-03-02T14:50:11;2.80;;;1.80;;
17228;SDS011;8731;50.364;8.958;2024-03-02T14:54:36;3.07;;;2.37;;
17228;SDS011;8731;50.364;8.958;2024-03-02T14:58:59;2.83;;;2.30;;
17228;SDS011;8731;50.364;8.958;2024-03-02T15:03:22;2.83;;;2.33;;
17228;SDS011;8731;50.364;8.958;2024-03-02T15:07:45;6.20;;;2.00;;
17228;SDS011;8731;50.364;8.958;2024-03-02T15:12:07;2.57;;;1.67;;
17228;SDS011;8731;50.364;8.958;2024-03-02T15:16:32;3.13;;;2.00;;
17228;SDS011;8731;50.364;8.958;2024-03-02T15:20:56;2.00;;;1.57;;
17228;SDS011;8731;50.364;8.958;2024-03-02T15:25:18;2.20;;;1.77;;
17228;SDS011;8731;50.364;8.958;2024-03-02T15:29:41;2.27;;;1.50;;
17228;SDS011;8731;50.364;8.958;2024-03-02T15:34:03;2.57;;;1.90;;
17228;SDS011;8731;50.364;8.958;2024-03-02T15:38:30;3.10;;;1.70;;
17228;SDS011;8731;50.364;8.958;2024-03-02T15:42:53;3.17;;;2.07;;
17228;SDS011;8731;50.364;8.958;2024-03-02T15:47:15;2.37;;;1.90;;
17228;SDS011;8731;50.364;8.958;2024-03-02T15:51:38;3.23;;;1.90;;
17228;SDS011;8731;50.364;8.958;2024-03-02T15:56:06;2.13;;;1.93;;
17228;SDS011;8731;50.364;8.958;2024-03-02T16:00:28;2.40;;;2.00;;
17228;SDS011;8731;50.364;8.958;2024-03-02T16:04:52;3.43;;;2.60;;
17228;SDS011;8731;50.364;8.958;2024-03-02T16:09:15;3.87;;;3.40;;
17228;SDS011;8731;50.364;8.958;2024-03-02T16:13:38;4.63;;;3.60;;
17228;SDS011;8731;50.364;8.958;2024-03-02T16:18:01;4.50;;;3.40;;
17228;SDS011;8731;50.364;8.958;2024-03-02T16:22:24;3.40;;;3.10;;
17228;SDS011;8731;50.364;8.958;2024-03-02T16:26:48;3.90;;;3.17;;
17228;SDS011;8731;50.364;8.958;2024-03-02T16:31:12;3.10;;;2.80;;
17228;SDS011;8731;50.364;8.958;2024-03-02T16:35:35;8.17;;;5.17;;
17228;SDS011;8731;50.364;8.958;2024-03-02T16:39:59;4.47;;;3.10;;
17228;SDS011;8731;50.364;8.958;2024-03-02T16:44:22;3.73;;;2.67;;
17228;SDS011;8731;50.364;8.958;2024-03-02T16:48:45;6.03;;;2.83;;
17228;SDS011;8731;50.364;8.958;2024-03-02T16:53:08;5.13;;;2.97;;
17228;SDS011;8731;50.364;8.958;2024-03-02T16:57:30;5.93;;;3.43;;
17228;SDS011;8731;50.364;8.958;2024-03-02T17:01:53;3.93;;;2.77;;
17228;SDS011;8731;50.364;8.958;2024-03-02T17:06:16;3.67;;;3.00;;
17228;SDS011;8731;50.364;8.958;2024-03-02T17:10:39;6.80;;;3.20;;
17228;SDS011;8731;50.364;8.958;2024-03-02T17:15:01;3.90;;;3.13;;
17228;SDS011;8731;50.364;8.958;2024-03-02T17:19:24;9.47;;;3.87;;
17228;SDS011;8731;50.364;8.958;2024-03-02T17:23:48;5.83;;;3.00;;
17228;SDS011;8731;50.364;8.958;2024-03-02T17:28:20;6.03;;;3.83;;
17228;SDS011;8731;50.364;8.958;2024-03-02T17:32:46;7.77;;;5.83;;
17228;SDS011;8731;50.364;8.958;2024-03-02T17:37:08;9.27;;;4.10;;
17228;SDS011;8731;50.364;8.958;2024-03-02T17:41:33;12.07;;;3.00;;
17228;SDS011;8731;50.364;8.958;2024-03-02T17:45:56;3.60;;;3.03;;
17228;SDS011;8731;50.364;8.958;2024-03-02T17:50:21;6.17;;;2.80;;
17228;SDS011;8731;50.364;8.958;2024-03-02T17:54:43;5.33;;;2.77;;
17228;SDS011;8731;50.364;8.958;2024-03-02T17:59:07;6.03;;;3.00;;
17228;SDS011;8731;50.364;8.958;2024-03-02T18:03:30;5.17;;;3.13;;
17228;SDS011;8731;50.364;8.958;2024-03-02T18:07:52;6.10;;;3.10;;
17228;SDS011;8731;50.364;8.958;2024-03-02T18:12:15;5.80;;;3.07;;
17228;SDS011;8731;50.364;8.958;2024-03-02T18:16:39;6.77;;;3.73;;
17228;SDS011;8731;50.364;8.958;2024-03-02T18:21:04;9.93;;;3.90;;
17228;SDS011;8731;50.364;8.958;2024-03-02T18:25:26;5.50;;;3.40;;
17228;SDS011;8731;50.364;8.958;2024-03-02T18:29:49;5.73;;;3.80;;
17228;SDS011;8731;50.364;8.958;2024-03-02T18:34:13;12.00;;;4.10;;
17228;SDS011;8731;50.364;8.958;2024-03-02T18:38:37;6.10;;;3.40;;
17228;SDS011;8731;50.364;8.958;2024-03-02T18:43:00;5.57;;;3.53;;
17228;SDS011;8731;50.364;8.958;2024-03-02T18:47:23;4.93;;;3.57;;
17228;SDS011;8731;50.364;8.958;2024-03-02T18:51:48;7.17;;;3.90;;
17228;SDS011;8731;50.364;8.958;2024-03-02T18:56:10;5.20;;;3.80;;
17228;SDS011;8731;50.364;8.958;2024-03-02T19:00:32;7.60;;;3.50;;
17228;SDS011;8731;50.364;8.958;2024-03-02T19:04:55;5.13;;;3.70;;
17228;SDS011;8731;50.364;8.958;2024-03-02T19:09:19;5.33;;;4.07;;
17228;SDS011;8731;50.364;8.958;2024-03-02T19:13:41;5.40;;;4.40;;
17228;SDS011;8731;50.364;8.958;2024-03-02T19:18:04;6.20;;;3.80;;
17228;SDS011;8731;50.364;8.958;2024-03-02T19:22:27;4.93;;;3.73;;
17228;SDS011;8731;50.364;8.958;2024-03-02T19:26:52;5.33;;;4.03;;
17228;SDS011;8731;50.364;8.958;2024-03-02T19:31:14;5.33;;;3.90;;
17228;SDS011;8731;50.364;8.958;2024-03-02T19:35:37;5.83;;;3.87;;
17228;SDS011;8731;50.364;8.958;2024-03-02T19:39:59;5.10;;;3.73;;
17228;SDS011;8731;50.364;8.958;2024-03-02T19:44:23;6.97;;;4.00;;
17228;SDS011;8731;50.364;8.958;2024-03-02T19:48:51;4.83;;;4.07;;
17228;SDS011;8731;50.364;8.958;2024-03-02T19:53:13;5.17;;;4.23;;
17228;SDS011;8731;50.364;8.958;2024-03-02T19:57:39;5.77;;;4.77;;
17228;SDS011;8731;50.364;8.958;2024-03-02T20:02:06;5.73;;;4.80;;
17228;SDS011;8731;50.364;8.958;2024-03-02T20:06:31;6.93;;;5.17;;
17228;SDS011;8731;50.364;8.958;2024-03-02T20:10:53;6.13;;;5.10;;
17228;SDS011;8731;50.364;8.958;2024-03-02T20:15:16;8.43;;;5.10;;
17228;SDS011;8731;50.364;8.958;2024-03-02T20:19:42;7.63;;;5.57;;
17228;SDS011;8731;50.364;8.958;2024-03-02T20:24:05;8.63;;;6.10;;
17228;SDS011;8731;50.364;8.958;2024-03-02T20:28:28;8.50;;;6.13;;
17228;SDS011;8731;50.364;8.958;2024-03-02T20:32:50;8.60;;;7.00;;
17228;SDS011;8731;50.364;8.958;2024-03-02T20:37:16;11.43;;;6.37;;
17228;SDS011;8731;50.364;8.958;2024-03-02T20:41:43;8.80;;;6.83;;
17228;SDS011;8731;50.364;8.958;2024-03-02T20:46:06;8.07;;;6.40;;
17228;SDS011;8731;50.364;8.958;2024-03-02T20:50:28;9.60;;;6.23;;
17228;SDS011;8731;50.364;8.958;2024-03-02T20:54:52;8.17;;;6.40;;
17228;SDS011;8731;50.364;8.958;2024-03-02T20:59:15;7.87;;;5.90;;
17228;SDS011;8731;50.364;8.958;2024-03-02T21:03:37;7.53;;;6.23;;
17228;SDS011;8731;50.364;8.958;2024-03-02T21:08:00;9.47;;;7.00;;
17228;SDS011;8731;50.364;8.958;2024-03-02T21:12:24;9.83;;;6.70;;
17228;SDS011;8731;50.364;8.958;2024-03-02T21:16:48;8.77;;;6.17;;
17228;SDS011;8731;50.364;8.958;2024-03-02T21:21:11;10.37;;;6.77;;
17228;SDS011;8731;50.364;8.958;2024-03-02T21:25:34;10.80;;;7.00;;
17228;SDS011;8731;50.364;8.958;2024-03-02T21:29:58;10.47;;;7.50;;
17228;SDS011;8731;50.364;8.958;2024-03-02T21:34:21;9.67;;;6.87;;
17228;SDS011;8731;50.364;8.958;2024-03-02T21:38:44;9.80;;;6.67;;
17228;SDS011;8731;50.364;8.958;2024-03-02T21:43:07;9.40;;;7.17;;
17228;SDS011;8731;50.364;8.958;2024-03-02T21:47:32;10.93;;;7.13;;
17228;SDS011;8731;50.364;8.958;2024-03-02T21:51:54;10.83;;;7.60;;
17228;SDS011;8731;50.364;8.958;2024-03-02T21:56:17;12.70;;;8.20;;
17228;SDS011;8731;50.364;8.958;2024-03-02T22:00:39;15.00;;;9.47;;
17228;SDS011;8731;50.364;8.958;2024-03-02T22:05:03;11.83;;;8.83;;
17228;SDS011;8731;50.364;8.958;2024-03-02T22:09:27;13.13;;;9.40;;
17228;SDS011;8731;50.364;8.958;2024-03-02T22:13:49;12.53;;;9.03;;
17228;SDS011;8731;50.364;8.958;2024-03-02T22:18:12;12.80;;;9.00;;
17228;SDS011;8731;50.364;8.958;2024-03-02T22:22:36;13.83;;;9.27;;
17228;SDS011;8731;50.364;8.958;2024-03-02T22:27:00;12.20;;;9.27;;
17228;SDS011;8731;50.364;8.958;2024-03-02T22:31:23;14.80;;;10.77;;
17228;SDS011;8731;50.364;8.958;2024-03-02T22:35:45;14.53;;;9.97;;
17228;SDS011;8731;50.364;8.958;2024-03-02T22:40:10;13.53;;;9.10;;
17228;SDS011;8731;50.364;8.958;2024-03-02T22:44:32;14.40;;;10.37;;
17228;SDS011;8731;50.364;8.958;2024-03-02T22:48:55;13.43;;;9.73;;
17228;SDS011;8731;50.364;8.958;2024-03-02T22:53:18;14.27;;;10.00;;
17228;SDS011;8731;50.364;8.958;2024-03-02T22:57:42;13.97;;;10.23;;
17228;SDS011;8731;50.364;8.958;2024-03-02T23:02:04;16.00;;;11.13;;
17228;SDS011;8731;50.364;8.958;2024-03-02T23:06:27;16.53;;;9.87;;
17228;SDS011;8731;50.364;8.958;2024-03-02T23:10:49;13.87;;;10.33;;
17228;SDS011;8731;50.364;8.958;2024-03-02T23:15:13;20.07;;;13.57;;
17228;SDS011;8731;50.364;8.958;2024-03-02T23:19:35;21.37;;;15.17;;
17228;SDS011;8731;50.364;8.958;2024-03-02T23:23:58;19.30;;;13.63;;
17228;SDS011;8731;50.364;8.958;2024-03-02T23:28:20;15.70;;;11.10;;
17228;SDS011;8731;50.364;8.958;2024-03-02T23:32:44;15.13;;;10.40;;
17228;SDS011;8731;50.364;8.958;2024-03-02T23:37:07;12.83;;;10.03;;
17228;SDS011;8731;50.364;8.958;2024-03-02T23:41:29;15.47;;;10.60;;
17228;SDS011;8731;50.364;8.958;2024-03-02T23:45:52;14.90;;;10.47;;
17228;SDS011;8731;50.364;8.958;2024-03-02T23:50:16;14.30;;;10.43;;
17228;SDS011;8731;50.364;8.958;2024-03-02T23:54:39;13.57;;;10.60;;
17228;SDS011;8731;50.364;8.958;2024-03-02T23:59:02;11.73;;;9.57;;
